Time;durP1;ratioP1;P1;durP2;ratioP2;P2;SDS_P1;SDS_P2;PMS_P1;PMS_P2;Temp;Humidity;BMP_temperature;BMP_pressure;BME280_temperature;BME280_humidity;BME280_pressure;Samples;Min_cycle;Max_cycle;Signal;HPM_P1;HPM_P2
2022/06/23 00:00:34;;;;;;;4.15;2.38;;;18.50;64.70;;;;;;5041540;28;20033;-80
2022/06/23 00:03:02;;;;;;;2.03;1.83;;;18.50;64.70;;;;;;5046508;28;20072;-80
2022/06/23 00:05:36;;;;;;;3.17;2.03;;;18.40;65.00;;;;;;5032355;28;20086;-80
2022/06/23 00:08:04;;;;;;;4.18;2.20;;;18.40;65.00;;;;;;5045335;28;20044;-84
2022/06/23 00:10:38;;;;;;;4.82;2.50;;;18.40;65.00;;;;;;5031297;28;20036;-83
2022/06/23 00:13:15;;;;;;;3.28;1.90;;;18.30;64.90;;;;;;5063502;28;20510;-83
2022/06/23 00:15:43;;;;;;;3.92;1.88;;;18.30;65.00;;;;;;5045180;28;20052;-83
2022/06/23 00:18:22;;;;;;;3.30;2.17;;;18.30;65.10;;;;;;5040531;28;20033;-83
2022/06/23 00:20:59;;;;;;;3.30;2.38;;;18.30;65.20;;;;;;5023788;28;20037;-83
2022/06/23 00:23:30;;;;;;;2.72;2.20;;;18.20;65.40;;;;;;5043031;28;20442;-78
2022/06/23 00:26:03;;;;;;;4.90;2.45;;;18.20;65.40;;;;;;5041333;28;20463;-82
2022/06/23 00:28:35;;;;;;;5.55;2.90;;;18.20;65.40;;;;;;5030244;28;20032;-81
2022/06/23 00:31:04;;;;;;;2.78;2.42;;;18.20;65.40;;;;;;5044065;28;20043;-82
2022/06/23 00:33:38;;;;;;;3.40;2.13;;;18.10;65.50;;;;;;5030613;28;20034;-81
2022/06/23 00:36:37;;;;;;;5.72;2.50;;;18.20;65.50;;;;;;5029271;28;20033;-81
2022/06/23 00:39:18;;;;;;;4.70;2.38;;;18.10;65.50;;;;;;5025432;28;20061;-82
2022/06/23 00:41:45;;;;;;;4.22;2.47;;;18.10;65.50;;;;;;5009958;28;20034;-83
2022/06/23 00:44:30;;;;;;;6.15;2.75;;;18.00;65.70;;;;;;5009132;28;20116;-83
2022/06/23 00:47:01;;;;;;;9.02;2.65;;;18.00;65.90;;;;;;4989344;28;20037;-83
2022/06/23 00:49:47;;;;;;;2.53;2.33;;;18.00;66.30;;;;;;5007548;28;20992;-83
2022/06/23 00:52:33;;;;;;;2.70;2.45;;;18.00;66.50;;;;;;4993867;28;20374;-82
2022/06/23 00:55:08;;;;;;;3.67;2.35;;;18.00;66.10;;;;;;4994086;28;20156;-82
2022/06/23 00:57:40;;;;;;;2.65;2.17;;;17.90;66.00;;;;;;5045133;28;20087;-82
2022/06/23 01:00:15;;;;;;;5.40;2.35;;;17.90;66.30;;;;;;5012850;28;20052;-82
2022/06/23 01:02:51;;;;;;;11.33;3.27;;;17.90;66.20;;;;;;4992293;28;20042;-78
2022/06/23 01:05:27;;;;;;;3.55;2.30;;;17.90;66.70;;;;;;5024484;28;20416;-77
2022/06/23 01:08:19;;;;;;;;;;;17.80;66.70;;;;;;5024571;28;20057;-77
2022/06/23 01:11:23;;;;;;;3.92;2.15;;;17.80;66.60;;;;;;5020711;28;19924;-78
2022/06/23 01:13:57;;;;;;;4.43;2.38;;;17.80;66.80;;;;;;5010431;28;20037;-78
2022/06/23 01:16:29;;;;;;;5.47;2.87;;;17.80;67.10;;;;;;5043952;28;20302;-78
2022/06/23 01:19:20;;;;;;;4.47;2.60;;;17.80;66.80;;;;;;5042741;28;20333;-77
2022/06/23 01:21:54;;;;;;;3.28;2.38;;;17.80;66.80;;;;;;5054786;28;20120;-77
2022/06/23 01:24:20;;;;;;;5.28;2.50;;;17.80;66.80;;;;;;5043255;28;20230;-78
2022/06/23 01:27:20;;;;;;;3.92;2.33;;;17.90;66.60;;;;;;5039000;28;20124;-79
2022/06/23 01:30:10;;;;;;;7.00;2.75;;;17.90;66.40;;;;;;5040751;28;20044;-80
2022/06/23 01:32:48;;;;;;;2.42;1.83;;;18.00;66.20;;;;;;5040206;28;20033;-79
2022/06/23 01:35:42;;;;;;;9.35;2.50;;;18.10;66.00;;;;;;5039844;28;20110;-78
2022/06/23 01:38:18;;;;;;;3.33;2.55;;;18.20;65.70;;;;;;5038185;28;20087;-77
2022/06/23 01:41:00;;;;;;;6.32;2.15;;;18.30;65.40;;;;;;5055802;28;20045;-80
2022/06/23 01:43:37;;;;;;;4.00;2.10;;;18.30;65.10;;;;;;5041079;28;20029;-80
2022/06/23 01:46:20;;;;;;;6.10;2.50;;;18.40;65.10;;;;;;5042043;28;20036;-80
2022/06/23 01:49:00;;;;;;;3.65;2.00;;;18.30;65.00;;;;;;5040763;28;20067;-81
2022/06/23 01:51:35;;;;;;;2.55;2.13;;;18.30;65.00;;;;;;5040324;28;20518;-80
2022/06/23 01:54:26;;;;;;;3.35;2.03;;;18.30;65.20;;;;;;5023113;28;20037;-80
2022/06/23 01:57:13;;;;;;;4.10;2.10;;;18.20;65.20;;;;;;5030266;28;20065;-79
2022/06/23 01:59:56;;;;;;;3.70;2.28;;;18.20;65.20;;;;;;5027884;28;20119;-78
2022/06/23 02:02:41;;;;;;;2.88;2.33;;;18.10;65.20;;;;;;5042247;28;20032;-81
2022/06/23 02:05:35;;;;;;;2.33;2.00;;;18.10;65.20;;;;;;5043756;28;20036;-79
2022/06/23 02:08:16;;;;;;;3.85;2.00;;;18.10;65.50;;;;;;5038162;28;20083;-80
2022/06/23 02:10:42;;;;;;;5.65;2.25;;;18.10;65.70;;;;;;5041367;28;20047;-80
2022/06/23 02:13:23;;;;;;;4.60;2.17;;;18.10;65.60;;;;;;5044670;28;21083;-80
2022/06/23 02:16:16;;;;;;;2.58;2.10;;;18.20;65.40;;;;;;5037681;28;20045;-80
2022/06/23 02:18:48;;;;;;;2.33;1.92;;;18.40;65.60;;;;;;5056289;28;20450;-80
2022/06/23 02:21:36;;;;;;;2.50;1.90;;;18.60;65.20;;;;;;5027036;28;20037;-81
2022/06/23 02:24:10;;;;;;;2.03;1.80;;;18.80;64.90;;;;;;5038160;28;20127;-80
2022/06/23 02:27:12;;;;;;;2.53;1.83;;;18.90;64.30;;;;;;5028236;28;20035;-80
2022/06/23 02:29:50;;;;;;;2.80;1.75;;;19.10;63.90;;;;;;5041009;28;20045;-80
2022/06/23 02:32:40;;;;;;;4.72;2.00;;;19.30;63.70;;;;;;5024079;28;20065;-78
2022/06/23 02:35:26;;;;;;;5.75;2.20;;;19.40;63.50;;;;;;5040918;28;20025;-78
2022/06/23 02:38:04;;;;;;;3.60;2.03;;;19.60;63.30;;;;;;5040024;28;20060;-79
2022/06/23 02:40:42;;;;;;;3.95;2.08;;;19.80;63.10;;;;;;5039710;28;20033;-80
2022/06/23 02:43:10;;;;;;;4.13;2.15;;;19.90;62.50;;;;;;5073602;28;20120;-80
2022/06/23 02:45:45;;;;;;;2.85;2.35;;;20.00;62.20;;;;;;5028606;28;20083;-80
2022/06/23 02:48:21;;;;;;;3.17;2.13;;;20.10;61.60;;;;;;5038784;28;20103;-79
2022/06/23 02:51:09;;;;;;;2.80;2.10;;;20.20;61.40;;;;;;5040618;28;20053;-80
2022/06/23 02:53:53;;;;;;;4.43;2.13;;;20.30;60.90;;;;;;5044062;28;20083;-79
2022/06/23 02:56:44;;;;;;;6.80;2.10;;;20.50;60.80;;;;;;5057067;28;20033;-80
2022/06/23 02:59:17;;;;;;;6.45;2.10;;;20.50;60.60;;;;;;5038786;28;20512;-77
2022/06/23 03:01:46;;;;;;;4.93;2.35;;;20.70;60.20;;;;;;5074015;28;20044;-77
2022/06/23 03:04:29;;;;;;;6.40;2.03;;;20.70;60.00;;;;;;5043846;28;20114;-76
2022/06/23 03:07:06;;;;;;;3.55;2.03;;;20.80;59.80;;;;;;5092102;28;20048;-76
2022/06/23 03:09:43;;;;;;;3.10;1.92;;;20.90;59.40;;;;;;5058901;28;20044;-76
2022/06/23 03:12:15;;;;;;;5.25;1.70;;;21.00;59.00;;;;;;5063137;28;20059;-76
2022/06/23 03:14:54;;;;;;;4.60;1.90;;;20.90;58.90;;;;;;5066220;28;20059;-76
2022/06/23 03:17:34;;;;;;;2.72;1.88;;;20.90;58.70;;;;;;5063432;28;20033;-77
2022/06/23 03:20:09;;;;;;;1.90;1.70;;;20.90;58.90;;;;;;5062852;28;20037;-77
2022/06/23 03:22:38;;;;;;;3.85;1.23;;;21.00;59.20;;;;;;5064037;28;20455;-77
2022/06/23 03:25:15;;;;;;;1.80;1.70;;;21.10;59.00;;;;;;5063482;28;20086;-77
2022/06/23 03:27:44;;;;;;;2.67;2.08;;;21.30;58.90;;;;;;5095829;28;20094;-77
2022/06/23 03:30:22;;;;;;;5.68;1.80;;;21.40;58.70;;;;;;5033585;28;20050;-78
2022/06/23 03:33:07;;;;;;;2.10;1.60;;;21.60;58.10;;;;;;5098248;28;20507;-76
2022/06/23 03:35:41;;;;;;;8.90;1.75;;;21.70;57.70;;;;;;5064123;28;20610;-76
2022/06/23 03:38:15;;;;;;;5.18;1.98;;;21.80;57.60;;;;;;5062118;28;20037;-72
2022/06/23 03:43:56;;;;;;;3.70;1.60;;;22.10;58.90;;;;;;5065522;28;20453;-76
2022/06/23 03:46:34;;;;;;;5.38;1.50;;;22.30;57.80;;;;;;5062693;28;20082;-75
2022/06/23 03:49:02;;;;;;;3.38;1.52;;;22.50;57.90;;;;;;5065786;28;20044;-75
2022/06/23 03:51:34;;;;;;;3.85;1.67;;;22.60;57.40;;;;;;5063797;28;20067;-74
2022/06/23 03:54:16;;;;;;;4.38;1.50;;;22.70;56.50;;;;;;5064371;28;20067;-75
2022/06/23 03:57:04;;;;;;;1.92;1.45;;;22.80;56.70;;;;;;5063199;28;20513;-74
2022/06/23 03:59:59;;;;;;;2.58;1.52;;;22.90;56.30;;;;;;5062542;28;20032;-75
2022/06/23 04:02:30;;;;;;;1.40;1.40;;;23.10;56.30;;;;;;5061780;28;20526;-75
2022/06/23 04:05:14;;;;;;;2.35;1.73;;;23.20;57.50;;;;;;5060255;28;20116;-75
2022/06/23 04:07:57;;;;;;;1.85;1.75;;;23.30;56.10;;;;;;5062073;28;20453;-74
2022/06/23 04:10:39;;;;;;;2.05;1.52;;;23.40;56.50;;;;;;5097055;28;20067;-76
2022/06/23 04:13:18;;;;;;;3.13;1.60;;;23.60;56.30;;;;;;5061612;28;20024;-75
2022/06/23 04:15:44;;;;;;;2.40;1.55;;;23.70;55.60;;;;;;5061267;28;20036;-76
2022/06/23 04:18:19;;;;;;;1.60;1.40;;;23.80;56.30;;;;;;5062209;28;20036;-75
2022/06/23 04:20:54;;;;;;;6.28;1.60;;;23.90;55.10;;;;;;5078958;28;20032;-75
2022/06/23 04:23:22;;;;;;;;;;;24.00;54.20;;;;;;5062460;28;20087;-78
2022/06/23 04:25:59;;;;;;;1.60;1.27;;;24.10;54.20;;;;;;5063334;28;20334;-77
2022/06/23 04:28:37;;;;;;;1.83;1.30;;;24.20;54.50;;;;;;5064334;28;20495;-77
2022/06/23 04:31:06;;;;;;;1.70;1.60;;;24.40;55.50;;;;;;5062576;28;20484;-76
2022/06/23 04:33:38;;;;;;;2.33;1.15;;;24.60;55.10;;;;;;5061858;28;20043;-75
2022/06/23 04:36:04;;;;;;;1.40;1.40;;;24.70;53.90;;;;;;5061391;28;20388;-76
2022/06/23 04:38:43;;;;;;;3.85;1.60;;;24.80;53.60;;;;;;5059565;28;20426;-76
2022/06/23 04:41:21;;;;;;;3.08;1.60;;;25.00;54.60;;;;;;5064558;28;20995;-77
2022/06/23 04:44:02;;;;;;;3.45;1.40;;;25.00;52.80;;;;;;5060789;28;20120;-76
2022/06/23 04:46:39;;;;;;;1.73;1.45;;;25.10;53.50;;;;;;5059302;28;20064;-77
2022/06/23 04:49:17;;;;;;;1.20;1.10;;;25.20;52.70;;;;;;5061545;28;20102;-76
2022/06/23 04:51:57;;;;;;;5.05;1.48;;;25.30;53.20;;;;;;5059585;28;20403;-76
2022/06/23 04:54:51;;;;;;;2.08;1.75;;;25.40;52.70;;;;;;5075956;28;20048;-80
2022/06/23 04:57:34;;;;;;;3.45;2.03;;;25.40;52.10;;;;;;5054831;28;20418;-79
2022/06/23 05:00:02;;;;;;;4.18;1.33;;;25.50;52.60;;;;;;5095173;28;20025;-81
2022/06/23 05:02:39;;;;;;;4.60;1.52;;;25.60;52.20;;;;;;5061129;28;20032;-79
2022/06/23 05:05:14;;;;;;;1.70;1.33;;;25.70;51.80;;;;;;5064423;28;20116;-79
2022/06/23 05:07:48;;;;;;;2.97;1.63;;;25.80;52.70;;;;;;5079039;28;20032;-81
2022/06/23 05:10:41;;;;;;;3.05;1.50;;;25.90;51.80;;;;;;5061164;28;20033;-86
2022/06/23 05:13:15;;;;;;;2.05;1.60;;;26.00;51.00;;;;;;5095190;28;20057;-86
2022/06/23 05:15:48;;;;;;;1.80;1.63;;;26.30;52.70;;;;;;5061529;28;20047;-83
2022/06/23 05:18:16;;;;;;;2.25;1.30;;;26.60;51.40;;;;;;5063304;28;20067;-78
2022/06/23 05:20:54;;;;;;;1.45;1.30;;;26.80;50.00;;;;;;5061375;28;20540;-79
2022/06/23 05:23:53;;;;;;;1.35;1.33;;;26.90;49.90;;;;;;5062621;28;20032;-78
2022/06/23 05:26:36;;;;;;;2.95;1.38;;;27.00;48.20;;;;;;5059721;28;20384;-79
2022/06/23 05:29:11;;;;;;;3.05;1.30;;;27.10;48.60;;;;;;5063687;28;20555;-80
2022/06/23 05:31:39;;;;;;;3.38;1.48;;;27.20;50.40;;;;;;5076373;28;20025;-79
2022/06/23 05:34:25;;;;;;;3.45;1.55;;;27.20;47.40;;;;;;5061511;28;20029;-77
2022/06/23 05:37:16;;;;;;;1.17;1.08;;;27.30;49.60;;;;;;5076524;28;20091;-79
2022/06/23 05:40:05;;;;;;;1.35;1.25;;;27.30;47.50;;;;;;5058843;28;20140;-80
2022/06/23 05:42:32;;;;;;;3.80;1.40;;;27.40;47.30;;;;;;5056861;28;20455;-79
2022/06/23 05:45:09;;;;;;;6.05;1.60;;;27.50;47.30;;;;;;5062426;28;20071;-79
2022/06/23 05:47:38;;;;;;;2.30;1.20;;;27.50;46.10;;;;;;5045809;28;20480;-78
2022/06/23 05:50:15;;;;;;;1.80;1.20;;;27.50;46.20;;;;;;5059396;28;20032;-79
2022/06/23 05:52:50;;;;;;;2.13;1.48;;;27.60;45.80;;;;;;5092655;28;20032;-83
2022/06/23 05:55:21;;;;;;;1.40;1.20;;;27.70;45.60;;;;;;5047503;28;20032;-82
2022/06/23 05:57:59;;;;;;;3.05;1.45;;;27.80;45.10;;;;;;5062254;28;20037;-83
2022/06/23 06:00:32;;;;;;;3.53;1.40;;;28.00;46.70;;;;;;5047321;28;20127;-82
2022/06/23 06:03:07;;;;;;;10.18;1.08;;;28.00;44.90;;;;;;5072473;28;20041;-83
2022/06/23 06:05:37;;;;;;;;;;;28.10;44.50;;;;;;5064603;28;20037;-85
2022/06/23 06:08:13;;;;;;;1.98;1.10;;;28.20;44.20;;;;;;5064313;28;20366;-85
2022/06/23 06:10:39;;;;;;;3.92;1.20;;;28.20;44.10;;;;;;5048154;28;20055;-85
2022/06/23 06:13:24;;;;;;;1.33;0.98;;;28.30;43.30;;;;;;5047546;28;20033;-85
2022/06/23 06:15:53;;;;;;;1.70;1.38;;;28.30;43.00;;;;;;5060972;28;20036;-83
2022/06/23 06:18:33;;;;;;;1.52;1.10;;;28.30;43.50;;;;;;5059547;28;20376;-83
2022/06/23 06:21:01;;;;;;;2.15;0.93;;;28.20;42.70;;;;;;5047854;28;20112;-84
2022/06/23 06:23:39;;;;;;;4.70;1.20;;;28.20;42.50;;;;;;5064882;28;20036;-84
2022/06/23 06:26:08;;;;;;;2.80;1.15;;;28.20;42.90;;;;;;5093256;28;20061;-85
2022/06/23 06:28:34;;;;;;;4.25;1.10;;;28.20;43.70;;;;;;5059878;28;20036;-84
2022/06/23 06:31:38;;;;;;;3.88;1.00;;;28.20;43.10;;;;;;5051011;28;20060;-83
2022/06/23 06:34:10;;;;;;;2.47;1.10;;;28.00;40.50;;;;;;5044881;28;20032;-84
2022/06/23 06:36:43;;;;;;;2.72;1.10;;;27.90;40.50;;;;;;5060826;28;20037;-83
2022/06/23 06:39:36;;;;;;;2.60;1.00;;;27.80;41.00;;;;;;5094303;28;20492;-83
2022/06/23 06:42:11;;;;;;;1.35;1.00;;;27.70;40.90;;;;;;5059143;28;20442;-83
2022/06/23 06:44:44;;;;;;;2.72;1.20;;;27.70;41.40;;;;;;5043679;28;20068;-82
2022/06/23 06:47:26;;;;;;;2.03;1.10;;;27.70;41.00;;;;;;5050059;28;20041;-82
2022/06/23 06:50:19;;;;;;;2.60;1.05;;;27.70;41.20;;;;;;5063709;28;20041;-82
2022/06/23 06:52:46;;;;;;;1.20;1.00;;;27.70;41.00;;;;;;5064240;28;20474;-81
2022/06/23 06:55:21;;;;;;;2.05;1.00;;;27.80;41.00;;;;;;5063116;28;20056;-78
2022/06/23 06:57:52;;;;;;;1.17;0.90;;;27.70;40.70;;;;;;5066318;28;20072;-78
2022/06/23 07:00:24;;;;;;;10.18;1.60;;;27.70;41.20;;;;;;5063799;28;20033;-79
2022/06/23 07:03:02;;;;;;;1.13;0.98;;;27.80;41.50;;;;;;5066936;28;20059;-79
2022/06/23 07:05:40;;;;;;;0.70;0.70;;;27.70;41.20;;;;;;5061501;28;20115;-79
2022/06/23 07:08:28;;;;;;;1.20;1.10;;;27.70;41.10;;;;;;5062242;28;20410;-79
2022/06/23 07:11:14;;;;;;;1.92;1.10;;;27.70;41.80;;;;;;5065915;28;20587;-80
2022/06/23 07:13:56;;;;;;;1.20;1.10;;;27.70;41.70;;;;;;5063746;28;20161;-81
2022/06/23 07:17:01;;;;;;;2.50;1.20;;;27.70;41.40;;;;;;5063130;28;20029;-77
2022/06/23 07:19:33;;;;;;;2.25;1.17;;;27.60;41.50;;;;;;5041164;28;20061;-81
2022/06/23 07:22:06;;;;;;;2.47;1.38;;;27.60;42.00;;;;;;5043037;28;20365;-82
2022/06/23 07:24:48;;;;;;;1.73;1.05;;;27.50;42.30;;;;;;5028304;28;20041;-82
2022/06/23 07:27:37;;;;;;;2.95;1.08;;;27.50;42.30;;;;;;5025450;28;20132;-81
2022/06/23 07:30:15;;;;;;;1.35;1.20;;;27.50;42.80;;;;;;5039524;28;20106;-82
2022/06/23 07:32:53;;;;;;;2.17;1.20;;;27.50;42.60;;;;;;5056934;28;20123;-82
2022/06/23 07:35:42;;;;;;;1.25;1.00;;;27.40;42.80;;;;;;5008664;28;20076;-82
2022/06/23 07:38:20;;;;;;;1.25;1.08;;;27.40;42.70;;;;;;5039759;28;20045;-81
2022/06/23 07:40:55;;;;;;;2.85;1.23;;;27.30;42.70;;;;;;5041030;28;20037;-81
2022/06/23 07:43:29;;;;;;;1.52;1.20;;;27.30;43.10;;;;;;5026415;28;20102;-81
2022/06/23 07:45:58;;;;;;;1.65;1.10;;;27.30;43.00;;;;;;5011731;28;20544;-83
2022/06/23 07:48:27;;;;;;;3.45;1.08;;;27.20;43.00;;;;;;4995252;28;20048;-81
2022/06/23 07:50:54;;;;;;;1.38;1.23;;;27.20;43.10;;;;;;5024203;28;20060;-81
2022/06/23 07:53:24;;;;;;;3.78;1.45;;;27.20;42.80;;;;;;5034472;28;20162;-82
2022/06/23 07:55:50;;;;;;;2.97;1.25;;;27.10;43.40;;;;;;5050439;28;20040;-84
2022/06/23 07:58:22;;;;;;;1.27;1.08;;;27.00;43.20;;;;;;5063490;28;20122;-80
2022/06/23 08:00:53;;;;;;;1.63;1.42;;;26.90;43.50;;;;;;5077724;28;20041;-82
2022/06/23 08:03:45;;;;;;;1.88;1.50;;;26.90;43.60;;;;;;5095408;28;20028;-82
2022/06/23 08:06:17;;;;;;;4.68;1.60;;;26.90;43.80;;;;;;5063352;28;20044;-82
2022/06/23 08:08:44;;;;;;;1.13;1.02;;;26.80;42.50;;;;;;5095212;28;20036;-80
2022/06/23 08:14:22;;;;;;;2.95;1.52;;;26.70;41.50;;;;;;5059907;28;20702;-77
2022/06/23 08:16:51;;;;;;;2.00;1.30;;;26.70;41.60;;;;;;5062901;28;20035;-77
2022/06/23 08:19:30;;;;;;;2.08;1.40;;;26.60;42.10;;;;;;5062475;28;20518;-77
2022/06/23 08:21:59;;;;;;;1.77;1.13;;;26.60;41.80;;;;;;5060663;28;20055;-76
2022/06/23 08:24:26;;;;;;;6.10;1.30;;;26.50;41.70;;;;;;5058059;28;20041;-74
2022/06/23 08:27:14;;;;;;;1.75;1.10;;;26.40;41.50;;;;;;5060919;28;20075;-76
2022/06/23 08:29:44;;;;;;;3.33;1.20;;;26.40;41.50;;;;;;5059941;28;20049;-76
2022/06/23 08:32:11;;;;;;;5.95;1.40;;;26.30;42.10;;;;;;5060598;28;20843;-75
2022/06/23 08:34:44;;;;;;;1.48;1.10;;;26.30;44.60;;;;;;5058790;28;20036;-74
2022/06/23 08:37:17;;;;;;;2.45;1.67;;;26.20;42.90;;;;;;5061299;28;20059;-76
2022/06/23 08:39:58;;;;;;;3.70;1.80;;;26.20;42.90;;;;;;5056622;28;20052;-74
2022/06/23 08:42:40;;;;;;;1.70;1.60;;;26.10;42.90;;;;;;5042495;28;20472;-74
2022/06/23 08:45:39;;;;;;;4.63;1.42;;;26.00;43.10;;;;;;5040176;28;20043;-75
2022/06/23 08:48:14;;;;;;;4.43;1.45;;;25.80;43.20;;;;;;5041458;28;20055;-76
2022/06/23 08:50:48;;;;;;;3.17;1.63;;;25.70;43.40;;;;;;5039050;28;20060;-75
2022/06/23 08:53:27;;;;;;;3.10;1.75;;;25.70;45.40;;;;;;5041804;28;20493;-75
2022/06/23 08:56:20;;;;;;;2.75;1.80;;;25.70;44.80;;;;;;5038110;28;20125;-75
2022/06/23 08:59:01;;;;;;;2.28;1.42;;;25.70;44.30;;;;;;5038454;28;20037;-75
2022/06/23 09:01:32;;;;;;;4.40;1.88;;;25.70;44.90;;;;;;5040500;28;20029;-79
2022/06/23 09:04:19;;;;;;;2.67;1.20;;;25.70;44.80;;;;;;5043101;28;20051;-74
2022/06/23 09:06:57;;;;;;;3.63;1.60;;;25.60;43.60;;;;;;5041999;28;20063;-75
2022/06/23 09:09:29;;;;;;;2.30;1.20;;;25.60;43.60;;;;;;5042549;28;20055;-75
2022/06/23 09:12:16;;;;;;;2.28;1.50;;;25.50;43.70;;;;;;5043317;28;20033;-76
2022/06/23 09:14:45;;;;;;;3.33;1.80;;;25.50;44.60;;;;;;5039269;28;20029;-76
2022/06/23 09:17:31;;;;;;;4.78;1.48;;;25.40;44.30;;;;;;5056385;28;20086;-76
2022/06/23 09:20:21;;;;;;;4.00;1.23;;;25.40;44.80;;;;;;5039071;28;20452;-88
2022/06/23 09:23:26;;;;;;;3.40;1.40;;;25.40;44.50;;;;;;5043079;28;20069;-86
2022/06/23 09:26:29;;;;;;;2.35;1.40;;;25.30;44.00;;;;;;5040425;28;20037;-80
2022/06/23 09:28:57;;;;;;;3.22;1.70;;;25.20;43.90;;;;;;5038412;28;20037;-79
2022/06/23 09:31:44;;;;;;;3.85;1.60;;;25.20;44.00;;;;;;5043788;28;20036;-79
2022/06/23 09:34:23;;;;;;;5.03;1.60;;;25.20;44.00;;;;;;5040533;28;20077;-79
2022/06/23 09:37:11;;;;;;;4.00;1.42;;;25.20;43.60;;;;;;5041012;28;20078;-79
2022/06/23 09:40:24;;;;;;;2.92;1.40;;;25.10;43.70;;;;;;5040031;28;20091;-80
2022/06/23 09:43:11;;;;;;;3.47;1.55;;;25.00;44.00;;;;;;5023404;28;20496;-80
2022/06/23 09:45:58;;;;;;;2.58;1.52;;;25.00;43.80;;;;;;5006562;28;20617;-80
2022/06/23 09:48:31;;;;;;;4.15;1.52;;;24.90;43.60;;;;;;5022759;28;20042;-80
2022/06/23 09:51:32;;;;;;;1.70;1.60;;;24.90;44.00;;;;;;5023824;28;20362;-80
2022/06/23 09:54:13;;;;;;;4.32;2.03;;;24.90;44.70;;;;;;5040001;28;20064;-80
2022/06/23 09:57:03;;;;;;;3.38;1.38;;;24.90;45.60;;;;;;5022953;28;20037;-80
2022/06/23 09:59:47;;;;;;;2.22;1.27;;;24.80;45.20;;;;;;4985982;28;20200;-80
2022/06/23 10:02:19;;;;;;;5.75;1.80;;;24.80;44.30;;;;;;5040423;28;20170;-81
2022/06/23 10:05:22;;;;;;;2.78;1.42;;;24.80;43.90;;;;;;5023006;28;20037;-80
2022/06/23 10:08:15;;;;;;;1.80;1.40;;;24.80;43.70;;;;;;5014313;28;20033;-80
2022/06/23 10:11:00;;;;;;;1.92;1.50;;;24.70;44.00;;;;;;5022976;28;20116;-83
2022/06/23 10:13:31;;;;;;;4.50;1.88;;;24.70;44.70;;;;;;5007130;28;21083;-82
2022/06/23 10:16:06;;;;;;;3.83;1.50;;;24.70;45.00;;;;;;5040332;28;20025;-87
2022/06/23 10:18:38;;;;;;;2.97;1.92;;;24.70;45.60;;;;;;4987889;28;20029;-87
2022/06/23 10:21:17;;;;;;;2.55;1.67;;;24.70;45.70;;;;;;5028595;28;20106;-89
2022/06/23 10:24:08;;;;;;;4.55;1.50;;;24.70;45.80;;;;;;5043138;28;20041;-88
2022/06/23 10:26:54;;;;;;;2.13;1.75;;;24.70;45.70;;;;;;5043218;28;20045;-87
2022/06/23 10:29:26;;;;;;;2.13;1.67;;;24.70;46.10;;;;;;5014196;28;20032;-89
2022/06/23 10:31:55;;;;;;;4.65;1.98;;;24.60;46.30;;;;;;5047336;28;20036;-88
2022/06/23 10:34:37;;;;;;;3.25;1.83;;;24.70;47.30;;;;;;5048153;28;20582;-88
2022/06/23 10:37:20;;;;;;;3.90;1.50;;;24.70;47.70;;;;;;5049212;28;20068;-86
2022/06/23 10:40:04;;;;;;;4.05;1.83;;;24.70;47.80;;;;;;5079754;28;20033;-84
2022/06/23 10:42:56;;;;;;;2.92;1.67;;;24.70;46.00;;;;;;5062515;28;20029;-86
2022/06/23 10:45:44;;;;;;;4.75;1.70;;;24.70;45.60;;;;;;5031031;28;20411;-85
2022/06/23 10:48:31;;;;;;;3.03;1.70;;;24.70;46.00;;;;;;5078381;28;20045;-85
2022/06/23 10:51:09;;;;;;;3.10;1.50;;;24.70;46.10;;;;;;5047766;28;20040;-85
2022/06/23 10:53:49;;;;;;;4.75;1.88;;;24.60;45.80;;;;;;5059142;28;20040;-86
2022/06/23 10:56:53;;;;;;;4.40;2.13;;;24.60;45.30;;;;;;5030153;28;20035;-87
2022/06/23 10:59:30;;;;;;;3.53;2.00;;;24.60;45.10;;;;;;5046272;28;20044;-86
2022/06/23 11:02:07;;;;;;;2.40;1.30;;;24.50;45.00;;;;;;5044687;28;20041;-86
2022/06/23 11:05:00;;;;;;;2.05;1.70;;;24.50;44.80;;;;;;5042270;28;20522;-87
2022/06/23 11:07:36;;;;;;;3.08;1.65;;;24.50;45.30;;;;;;5030531;28;20033;-85
2022/06/23 11:10:18;;;;;;;4.20;1.90;;;24.60;45.60;;;;;;5066350;28;20507;-86
2022/06/23 11:12:57;;;;;;;1.85;1.70;;;24.60;45.70;;;;;;5080351;28;20087;-86
2022/06/23 11:15:38;;;;;;;3.38;1.80;;;24.60;46.70;;;;;;5047731;28;20041;-84
2022/06/23 11:18:26;;;;;;;2.38;1.90;;;24.60;45.80;;;;;;5058814;28;20040;-86
2022/06/23 11:21:03;;;;;;;2.05;1.73;;;24.60;45.50;;;;;;5074716;28;20111;-85
2022/06/23 11:23:38;;;;;;;2.30;1.85;;;24.60;45.80;;;;;;5053085;28;20036;-85
2022/06/23 11:26:47;;;;;;;8.18;2.15;;;24.50;46.10;;;;;;5063529;28;20063;-85
2022/06/23 11:29:40;;;;;;;2.92;1.80;;;24.50;46.20;;;;;;5061682;28;20392;-82
2022/06/23 11:32:28;;;;;;;3.47;1.65;;;24.50;44.90;;;;;;5057341;28;20037;-81
2022/06/23 11:35:28;;;;;;;2.17;1.73;;;24.50;44.50;;;;;;5039469;28;20128;-81
2022/06/23 11:38:35;;;;;;;3.55;2.10;;;24.50;44.90;;;;;;5042976;28;20028;-80
2022/06/23 11:41:19;;;;;;;4.68;2.10;;;24.50;45.40;;;;;;5042157;28;20040;-82
2022/06/23 11:43:50;;;;;;;3.13;2.20;;;24.50;45.60;;;;;;5029789;28;20119;-82
2022/06/23 11:46:27;;;;;;;3.50;2.13;;;24.50;46.10;;;;;;5040435;28;20033;-81
2022/06/23 11:48:59;;;;;;;2.10;2.00;;;24.50;45.50;;;;;;5041551;28;20044;-81
2022/06/23 11:51:31;;;;;;;6.13;2.00;;;24.40;45.00;;;;;;5043902;28;20037;-82
2022/06/23 11:54:22;;;;;;;5.38;2.05;;;24.40;45.50;;;;;;5029162;28;20025;-82
2022/06/23 11:56:59;;;;;;;4.57;2.20;;;24.50;46.00;;;;;;5025603;28;20072;-81
2022/06/23 11:59:42;;;;;;;3.25;2.13;;;24.50;46.60;;;;;;5043643;28;20079;-82
2022/06/23 12:02:09;;;;;;;2.60;2.08;;;24.50;47.10;;;;;;5057771;28;20128;-82
2022/06/23 12:05:14;;;;;;;3.35;2.00;;;24.50;47.00;;;;;;5041658;28;20433;-82
2022/06/23 12:07:54;;;;;;;2.10;1.90;;;24.50;46.30;;;;;;5043555;28;20492;-82
2022/06/23 12:10:27;;;;;;;3.83;1.73;;;24.50;45.70;;;;;;5030275;28;20033;-82
2022/06/23 12:12:57;;;;;;;6.60;2.15;;;24.50;45.10;;;;;;5061778;28;20037;-83
2022/06/23 12:15:27;;;;;;;3.45;1.80;;;24.40;44.60;;;;;;5063217;28;20044;-82
2022/06/23 12:17:59;;;;;;;2.35;1.83;;;24.40;44.90;;;;;;5064127;28;20029;-81
2022/06/23 12:20:29;;;;;;;3.65;2.35;;;24.40;45.30;;;;;;5060896;28;20055;-82
2022/06/23 12:23:26;;;;;;;2.33;1.90;;;24.40;44.90;;;;;;5062130;28;20036;-82
2022/06/23 12:26:28;;;;;;;2.40;2.20;;;24.40;45.20;;;;;;5061966;28;20029;-80
2022/06/23 12:28:58;;;;;;;2.92;2.25;;;24.40;46.50;;;;;;5061233;28;20044;-81
2022/06/23 12:31:48;;;;;;;3.15;2.22;;;24.40;46.20;;;;;;5078016;28;20044;-82
2022/06/23 12:34:20;;;;;;;4.20;2.40;;;24.40;46.50;;;;;;5063353;28;20512;-83
2022/06/23 12:36:58;;;;;;;3.92;2.45;;;24.50;46.70;;;;;;5078229;28;20438;-80
2022/06/23 12:39:48;;;;;;;2.88;2.25;;;24.50;46.60;;;;;;5048065;28;20036;-85
2022/06/23 12:42:31;;;;;;;3.40;2.65;;;24.40;46.80;;;;;;5094204;28;20036;-82
2022/06/23 12:45:24;;;;;;;2.75;2.30;;;24.40;46.90;;;;;;5063022;28;20040;-83
2022/06/23 12:47:59;;;;;;;4.25;2.33;;;24.50;46.90;;;;;;5048529;28;20048;-82
2022/06/23 12:51:08;;;;;;;3.00;2.20;;;24.40;46.30;;;;;;5093649;28;20036;-82
2022/06/23 12:53:37;;;;;;;2.63;2.20;;;24.40;45.60;;;;;;5033840;28;20041;-82
2022/06/23 12:56:09;;;;;;;2.55;2.20;;;24.40;46.10;;;;;;5016592;28;20040;-81
2022/06/23 12:58:43;;;;;;;2.33;2.13;;;24.40;46.90;;;;;;5050381;28;20064;-82
2022/06/23 13:01:11;;;;;;;2.47;2.28;;;24.40;45.70;;;;;;4985994;28;20044;-80
2022/06/23 13:03:59;;;;;;;3.03;2.13;;;24.40;45.10;;;;;;5035766;28;20037;-81
2022/06/23 13:06:33;;;;;;;2.08;1.90;;;24.40;45.50;;;;;;5021063;28;20109;-81
2022/06/23 13:09:21;;;;;;;2.30;2.15;;;24.40;46.80;;;;;;5048288;28;20045;-80
2022/06/23 13:12:10;;;;;;;3.25;2.47;;;24.40;47.20;;;;;;5020714;28;21030;-80
2022/06/23 13:14:54;;;;;;;2.05;1.95;;;24.40;47.30;;;;;;5016102;28;20071;-81
2022/06/23 13:17:26;;;;;;;3.88;2.20;;;24.40;48.20;;;;;;5004978;28;20029;-78
2022/06/23 13:19:59;;;;;;;5.65;2.28;;;24.40;49.20;;;;;;5033386;28;20030;-79
2022/06/23 13:22:25;;;;;;;2.42;2.22;;;24.50;48.70;;;;;;5016414;28;20574;-80
2022/06/23 13:24:54;;;;;;;5.15;2.40;;;24.50;47.20;;;;;;5034240;28;20029;-79
2022/06/23 13:27:24;;;;;;;4.28;2.50;;;24.40;46.90;;;;;;5016685;28;20106;-81
2022/06/23 13:30:08;;;;;;;4.10;2.40;;;24.40;48.40;;;;;;5037934;28;20063;-81
2022/06/23 13:32:57;;;;;;;3.92;2.60;;;24.40;48.70;;;;;;5062214;28;20127;-81
2022/06/23 13:35:45;;;;;;;4.47;2.60;;;24.50;48.70;;;;;;5047758;28;20094;-81
2022/06/23 13:38:29;;;;;;;3.97;2.50;;;24.50;47.80;;;;;;5092513;28;20043;-82
2022/06/23 13:41:05;;;;;;;3.03;2.33;;;24.50;47.80;;;;;;5093392;28;20033;-83
2022/06/23 13:43:36;;;;;;;3.95;2.40;;;24.50;48.70;;;;;;5062235;28;20029;-81
2022/06/23 13:46:15;;;;;;;3.78;2.00;;;24.40;49.90;;;;;;5076190;28;20078;-82
2022/06/23 13:48:59;;;;;;;2.60;2.40;;;24.50;49.70;;;;;;5092928;28;20127;-81
2022/06/23 13:51:54;;;;;;;2.95;2.05;;;24.50;49.50;;;;;;5047758;28;20045;-81
2022/06/23 13:54:44;;;;;;;3.47;2.60;;;24.50;49.40;;;;;;5059573;28;20645;-81
2022/06/23 13:57:34;;;;;;;2.80;2.55;;;24.50;48.20;;;;;;5046961;28;20044;-82